createdAt,value
2023-04-24T00:00:32.505Z,96198.22
2023-04-24T00:03:00.461Z,96193.22
2023-04-24T00:05:28.614Z,96180.81
2023-04-24T00:07:56.573Z,96184.50
2023-04-24T00:10:24.565Z,96190.22
2023-04-24T00:12:52.448Z,96180.69
2023-04-24T00:15:22.204Z,96182.72
2023-04-24T00:17:50.330Z,96180.72
2023-04-24T00:20:18.159Z,96177.13
2023-04-24T00:22:46.478Z,96165.91
2023-04-24T00:25:14.331Z,96170.31
2023-04-24T00:27:42.279Z,96163.53
2023-04-24T00:30:10.940Z,96166.97
2023-04-24T00:32:40.186Z,96173.44
2023-04-24T00:35:08.906Z,96168.69
2023-04-24T00:37:36.852Z,96167.00
2023-04-24T00:40:05.285Z,96165.34
2023-04-24T00:42:33.121Z,96160.69
2023-04-24T00:45:01.022Z,96151.16
2023-04-24T00:47:29.106Z,96153.50
2023-04-24T00:49:58.405Z,96157.81
2023-04-24T00:52:26.368Z,96151.59
2023-04-24T00:54:54.191Z,96143.00
2023-04-24T00:57:22.773Z,96140.88
2023-04-24T00:59:50.803Z,96137.41
2023-04-24T01:02:18.728Z,96149.25
2023-04-24T01:04:46.593Z,96142.59
2023-04-24T01:07:15.878Z,96140.06
2023-04-24T01:09:44.100Z,96136.72
2023-04-24T01:12:12.096Z,96135.91
2023-04-24T01:14:40.048Z,96136.38
2023-04-24T01:17:08.349Z,96144.94
2023-04-24T01:19:36.541Z,96145.91
2023-04-24T01:22:04.873Z,96138.19
2023-04-24T01:24:34.089Z,96142.47
2023-04-24T01:27:02.249Z,96155.09
2023-04-24T01:29:30.231Z,96144.00
2023-04-24T01:31:59.573Z,96153.88
2023-04-24T01:34:27.678Z,96150.81
2023-04-24T01:36:55.712Z,96154.72
2023-04-24T01:39:24.340Z,96154.72
2023-04-24T01:41:53.644Z,96160.94
2023-04-24T01:44:21.558Z,96155.78
2023-04-24T01:46:49.402Z,96166.44
2023-04-24T01:49:17.198Z,96166.66
2023-04-24T01:51:45.623Z,96162.88
2023-04-24T01:54:13.767Z,96153.59
2023-04-24T01:56:43.506Z,96172.91
2023-04-24T01:59:13.488Z,96161.22
2023-04-24T02:01:41.665Z,96161.44
2023-04-24T02:04:10.090Z,96167.16
2023-04-24T02:06:38.260Z,96155.72
2023-04-24T02:09:06.117Z,96142.50
2023-04-24T02:11:33.934Z,96151.56
2023-04-24T02:14:01.706Z,96158.09
2023-04-24T02:16:33.353Z,96165.22
2023-04-24T02:19:01.293Z,96163.69
2023-04-24T02:21:29.559Z,96168.84
2023-04-24T02:23:57.500Z,96168.84
2023-04-24T02:26:25.942Z,96167.16
2023-04-24T02:28:53.718Z,96163.09
2023-04-24T02:31:21.582Z,96162.41
2023-04-24T02:33:51.456Z,96170.28
2023-04-24T02:36:19.258Z,96170.38
2023-04-24T02:38:47.035Z,96176.56
2023-04-24T02:41:14.847Z,96184.56
2023-04-24T02:43:42.592Z,96170.72
2023-04-24T02:46:10.383Z,96171.31
2023-04-24T02:48:38.262Z,96176.56
2023-04-24T02:51:07.779Z,96171.56
2023-04-24T02:53:35.662Z,96171.44
2023-04-24T02:56:03.438Z,96170.50
2023-04-24T02:58:31.496Z,96174.91
2023-04-24T03:00:59.313Z,96184.81
2023-04-24T03:03:27.371Z,96171.69
2023-04-24T03:05:56.428Z,96179.78
2023-04-24T03:08:25.597Z,96185.41
2023-04-24T03:10:53.356Z,96175.50
2023-04-24T03:13:21.180Z,96178.22
2023-04-24T03:15:49.184Z,96174.88
2023-04-24T03:18:17.066Z,96175.59
2023-04-24T03:20:44.925Z,96179.28
2023-04-24T03:23:12.651Z,96186.19
2023-04-24T03:25:41.869Z,96187.38
2023-04-24T03:28:09.629Z,96205.97
2023-04-24T03:30:37.377Z,96208.22
2023-04-24T03:33:05.351Z,96214.97
2023-04-24T03:35:33.182Z,96215.44
2023-04-24T03:38:00.973Z,96222.66
2023-04-24T03:40:30.555Z,96219.66
2023-04-24T03:42:59.762Z,96225.34
2023-04-24T03:45:27.530Z,96223.09
2023-04-24T03:47:55.298Z,96232.13
2023-04-24T03:50:23.190Z,96225.44
2023-04-24T03:52:51.016Z,96221.59
2023-04-24T03:55:18.785Z,96225.50
2023-04-24T03:57:46.616Z,96225.69
2023-04-24T04:00:16.726Z,96217.34
2023-04-24T04:02:44.594Z,96222.59
2023-04-24T04:05:12.523Z,96225.44
2023-04-24T04:07:40.613Z,96215.38
2023-04-24T04:10:09.326Z,96226.09
2023-04-24T04:12:37.083Z,96230.84
2023-04-24T04:15:05.704Z,96227.25
2023-04-24T04:17:34.981Z,96215.56
2023-04-24T04:20:06.666Z,96235.03
2023-04-24T04:22:34.566Z,96234.31
2023-04-24T04:25:02.326Z,96234.31
2023-04-24T04:27:33.150Z,96244.28
2023-04-24T04:30:05.528Z,96246.03
2023-04-24T04:32:35.584Z,96251.63
2023-04-24T04:35:04.587Z,96248.06
2023-04-24T04:37:32.758Z,96249.59
2023-04-24T04:40:00.525Z,96254.97
2023-04-24T04:42:29.372Z,96254.34
2023-04-24T04:44:58.521Z,96247.03
2023-04-24T04:47:27.115Z,96247.66
2023-04-24T04:49:56.479Z,96238.97
2023-04-24T04:52:26.201Z,96240.09
2023-04-24T04:54:53.987Z,96255.81
2023-04-24T04:57:21.738Z,96262.09
2023-04-24T04:59:49.533Z,96265.03
2023-04-24T05:02:17.485Z,96260.22
2023-04-24T05:04:46.447Z,96276.16
2023-04-24T05:07:15.908Z,96281.66
2023-04-24T05:09:43.876Z,96277.28
2023-04-24T05:12:11.926Z,96279.69
2023-04-24T05:14:39.669Z,96289.00
2023-04-24T05:17:07.463Z,96283.75
2023-04-24T05:19:37.067Z,96273.63
2023-04-24T05:22:07.564Z,96280.22
2023-04-24T05:24:36.781Z,96284.59
2023-04-24T05:27:05.594Z,96288.06
2023-04-24T05:29:34.204Z,96278.63
2023-04-24T05:32:02.387Z,96305.63
2023-04-24T05:34:30.252Z,96310.25
2023-04-24T05:36:58.132Z,96323.50
2023-04-24T05:39:26.744Z,96324.56
2023-04-24T05:41:56.094Z,96317.06
2023-04-24T05:44:23.872Z,96320.88
2023-04-24T05:46:51.824Z,96322.16
2023-04-24T05:49:19.653Z,96320.28
2023-04-24T05:51:47.417Z,96334.91
2023-04-24T05:54:15.128Z,96342.25
2023-04-24T05:56:43.338Z,96339.28
2023-04-24T05:59:12.583Z,96341.38
2023-04-24T06:01:40.357Z,96381.56
2023-04-24T06:04:08.272Z,96353.16
2023-04-24T06:06:37.237Z,96365.84
2023-04-24T06:09:05.919Z,96354.72
2023-04-24T06:11:33.860Z,96368.94
2023-04-24T06:14:01.659Z,96360.75
2023-04-24T06:16:32.303Z,96374.28
2023-04-24T06:19:00.379Z,96389.16
2023-04-24T06:21:28.623Z,96387.47
2023-04-24T06:23:57.082Z,96385.94
2023-04-24T06:26:26.013Z,96382.38
2023-04-24T06:28:54.792Z,96389.28
2023-04-24T06:31:22.740Z,96383.22
2023-04-24T06:33:51.954Z,96388.94
2023-04-24T06:36:19.879Z,96383.13
2023-04-24T06:38:47.639Z,96386.88
2023-04-24T06:41:15.400Z,96390.34
2023-04-24T06:43:43.147Z,96383.91
2023-04-24T06:46:10.926Z,96387.81
2023-04-24T06:48:38.740Z,96391.09
2023-04-24T06:51:07.975Z,96379.59
2023-04-24T06:53:36.441Z,96387.16
2023-04-24T06:56:05.083Z,96389.38
2023-04-24T06:58:33.064Z,96376.75
2023-04-24T07:01:00.850Z,96382.22
2023-04-24T07:03:28.787Z,96380.53
2023-04-24T07:05:57.111Z,96382.28
2023-04-24T07:08:26.374Z,96386.22
2023-04-24T07:10:54.119Z,96368.69
2023-04-24T07:13:21.855Z,96385.19
2023-04-24T07:15:51.706Z,96378.91
2023-04-24T07:18:19.699Z,96383.78
2023-04-24T07:20:47.452Z,96378.66
2023-04-24T07:23:15.239Z,96375.56
2023-04-24T07:25:44.351Z,96385.31
2023-04-24T07:28:12.141Z,96386.53
2023-04-24T07:30:39.995Z,96387.59
2023-04-24T07:33:07.920Z,96384.91
2023-04-24T07:35:36.450Z,96393.16
2023-04-24T07:38:04.254Z,96385.50
2023-04-24T07:40:31.954Z,96389.44
2023-04-24T07:43:01.256Z,96396.47
2023-04-24T07:45:29.322Z,96395.25
2023-04-24T07:47:57.282Z,96393.84
2023-04-24T07:50:25.045Z,96392.78
2023-04-24T07:52:52.810Z,96406.75
2023-04-24T07:55:23.355Z,96398.06
2023-04-24T07:57:53.376Z,96396.50
2023-04-24T08:00:22.810Z,96399.84
2023-04-24T08:02:50.849Z,96398.31
2023-04-24T08:05:19.058Z,96396.03
2023-04-24T08:07:49.749Z,96400.97
2023-04-24T08:10:17.675Z,96403.59
2023-04-24T08:12:45.429Z,96406.44
2023-04-24T08:15:13.155Z,96420.53
2023-04-24T08:17:42.381Z,96402.75
2023-04-24T08:20:23.339Z,96415.53
2023-04-24T08:22:51.118Z,96416.81
2023-04-24T08:25:20.153Z,96417.16
2023-04-24T08:27:47.948Z,96420.53
2023-04-24T08:30:15.987Z,96426.00
2023-04-24T08:32:45.184Z,96431.63
2023-04-24T08:35:13.457Z,96435.00
2023-04-24T08:37:41.441Z,96438.94
2023-04-24T08:40:15.154Z,96433.38
2023-04-24T08:42:44.391Z,96447.44
2023-04-24T08:45:13.318Z,96446.34
2023-04-24T08:47:42.377Z,96449.97
2023-04-24T08:50:13.577Z,96445.19
2023-04-24T08:52:41.623Z,96454.22
2023-04-24T08:55:09.972Z,96459.84
2023-04-24T08:57:41.098Z,96438.69
2023-04-24T09:00:11.939Z,96459.94
2023-04-24T09:02:43.606Z,96450.63
2023-04-24T09:05:13.150Z,96460.09
2023-04-24T09:07:42.169Z,96455.63
2023-04-24T09:10:10.218Z,96463.09
2023-04-24T09:12:38.000Z,96464.97
2023-04-24T09:15:06.722Z,96466.88
2023-04-24T09:17:36.517Z,96462.34
2023-04-24T09:20:05.208Z,96475.38
2023-04-24T09:22:34.434Z,96477.25
2023-04-24T09:25:05.001Z,96470.97
2023-04-24T09:27:33.214Z,96476.34
2023-04-24T09:30:01.664Z,96475.03
2023-04-24T09:32:31.050Z,96467.50
2023-04-24T09:35:10.245Z,96474.66
2023-04-24T09:37:40.477Z,96476.44
2023-04-24T09:40:13.430Z,96483.47
2023-04-24T09:42:41.466Z,96487.69
2023-04-24T09:45:15.638Z,96492.09
2023-04-24T09:47:44.311Z,96505.31
2023-04-24T09:50:14.149Z,96503.50
2023-04-24T09:52:44.966Z,96504.56
2023-04-24T09:55:14.280Z,96506.97
2023-04-24T09:57:50.242Z,96509.59
2023-04-24T10:00:21.720Z,96528.75
2023-04-24T10:02:53.115Z,96518.78
2023-04-24T10:05:21.803Z,96528.94
2023-04-24T10:07:52.963Z,96537.25
2023-04-24T10:10:21.203Z,96535.94
2023-04-24T10:12:49.217Z,96550.31
2023-04-24T10:15:21.546Z,96515.56
2023-04-24T10:17:53.464Z,96545.72
2023-04-24T10:20:23.091Z,96555.88
2023-04-24T10:22:53.436Z,96560.88
2023-04-24T10:25:22.946Z,96553.06
2023-04-24T10:27:51.886Z,96550.94
2023-04-24T10:30:20.689Z,96547.66
2023-04-24T10:32:48.726Z,96544.59
2023-04-24T10:35:17.734Z,96550.75
2023-04-24T10:37:47.505Z,96549.69
2023-04-24T10:40:20.401Z,96540.63
2023-04-24T10:42:49.902Z,96541.72
2023-04-24T10:45:22.506Z,96554.50
2023-04-24T10:47:54.563Z,96546.13
2023-04-24T10:50:22.965Z,96561.56
2023-04-24T10:52:52.388Z,96559.72
2023-04-24T10:55:41.667Z,96560.25
2023-04-24T10:58:09.367Z,96567.75
2023-04-24T11:00:39.159Z,96563.69
2023-04-24T11:03:07.721Z,96562.16
2023-04-24T11:05:53.243Z,96570.31
2023-04-24T11:08:26.966Z,96594.88
2023-04-24T11:11:01.809Z,96552.88
2023-04-24T11:14:07.505Z,96570.97
2023-04-24T11:16:39.157Z,96555.22
2023-04-24T11:19:08.616Z,96570.16
2023-04-24T11:21:44.096Z,96575.28
2023-04-24T11:24:38.909Z,96605.91
2023-04-24T11:27:16.038Z,96619.81
2023-04-24T11:29:46.080Z,96608.00
2023-04-24T11:32:19.680Z,96610.97
2023-04-24T11:34:52.133Z,96615.81
2023-04-24T11:37:19.882Z,96606.06
2023-04-24T11:39:47.639Z,96610.03
2023-04-24T11:42:18.161Z,96615.78
2023-04-24T11:44:48.591Z,96608.44
2023-04-24T11:47:16.463Z,96617.50
2023-04-24T11:49:44.247Z,96611.06
2023-04-24T11:52:12.761Z,96613.13
2023-04-24T11:54:40.592Z,96615.09
2023-04-24T11:57:08.603Z,96610.66
2023-04-24T11:59:40.555Z,96613.78
2023-04-24T12:02:08.477Z,96607.69
2023-04-24T12:04:43.189Z,96608.09
2023-04-24T12:07:11.471Z,96609.50
2023-04-24T12:09:47.643Z,96613.47
2023-04-24T12:12:16.759Z,96611.88
2023-04-24T12:14:51.417Z,96621.09
2023-04-24T12:17:19.312Z,96624.81
2023-04-24T12:19:48.233Z,96621.34
2023-04-24T12:22:16.218Z,96631.97
2023-04-24T12:25:01.533Z,96621.72
2023-04-24T12:27:31.841Z,96632.69
2023-04-24T12:30:02.159Z,96638.91
2023-04-24T12:32:30.013Z,96641.19
2023-04-24T12:34:58.169Z,96635.00
2023-04-24T12:37:27.027Z,96645.84
2023-04-24T12:40:01.906Z,96634.31
2023-04-24T12:42:30.429Z,96644.44
2023-04-24T12:44:59.745Z,96635.84
2023-04-24T12:47:29.736Z,96647.09
2023-04-24T12:49:57.615Z,96647.03
2023-04-24T12:52:26.585Z,96646.19
2023-04-24T12:54:55.346Z,96646.56
2023-04-24T12:57:23.188Z,96648.38
2023-04-24T12:59:51.502Z,96655.69
2023-04-24T13:02:19.702Z,96640.97
2023-04-24T13:04:49.208Z,96637.59
2023-04-24T13:07:17.362Z,96641.91
2023-04-24T13:09:46.169Z,96635.91
2023-04-24T13:12:14.372Z,96649.56
2023-04-24T13:14:42.084Z,96668.13
2023-04-24T13:17:10.326Z,96649.59
2023-04-24T13:19:39.242Z,96668.56
2023-04-24T13:22:08.977Z,96658.88
2023-04-24T13:24:38.008Z,96651.38
2023-04-24T13:27:07.577Z,96645.34
2023-04-24T13:29:35.305Z,96646.47
2023-04-24T13:32:03.304Z,96677.91
2023-04-24T13:34:31.214Z,96662.47
2023-04-24T13:37:00.137Z,96658.88
2023-04-24T13:39:29.386Z,96642.22
2023-04-24T13:41:57.191Z,96657.53
2023-04-24T13:44:25.506Z,96649.72
2023-04-24T13:46:57.796Z,96641.81
2023-04-24T13:49:26.993Z,96657.69
2023-04-24T13:51:55.651Z,96644.09
2023-04-24T13:54:24.489Z,96651.75
2023-04-24T13:56:53.937Z,96659.94
2023-04-24T13:59:22.339Z,96660.66
2023-04-24T14:01:50.259Z,96662.28
2023-04-24T14:04:18.489Z,96649.78
2023-04-24T14:06:46.613Z,96646.06
2023-04-24T14:09:14.804Z,96643.38
2023-04-24T14:11:42.692Z,96652.06
2023-04-24T14:14:12.585Z,96644.63
2023-04-24T14:16:40.619Z,96628.78
2023-04-24T14:19:08.513Z,96646.94
2023-04-24T14:21:36.384Z,96643.38
2023-04-24T14:24:04.138Z,96647.53
2023-04-24T14:26:31.942Z,96644.53
2023-04-24T14:29:11.720Z,96643.28
2023-04-24T14:31:43.902Z,96651.41
2023-04-24T14:34:11.784Z,96645.28
2023-04-24T14:36:39.869Z,96644.06
2023-04-24T14:39:08.545Z,96656.94
2023-04-24T14:41:37.226Z,96650.59
2023-04-24T14:44:05.889Z,96658.38
2023-04-24T14:46:34.102Z,96653.66
2023-04-24T14:49:03.421Z,96660.66
2023-04-24T14:51:31.447Z,96676.00
2023-04-24T14:53:59.298Z,96663.31
2023-04-24T14:56:27.138Z,96673.97
2023-04-24T14:58:54.912Z,96671.69
2023-04-24T15:01:22.977Z,96672.41
2023-04-24T15:03:51.064Z,96674.56
2023-04-24T15:06:21.219Z,96676.97
2023-04-24T15:08:50.387Z,96666.69
2023-04-24T15:11:18.788Z,96672.22
2023-04-24T15:13:47.520Z,96671.47
2023-04-24T15:16:15.622Z,96675.88
2023-04-24T15:18:43.546Z,96684.88
2023-04-24T15:21:11.319Z,96681.75
2023-04-24T15:23:40.453Z,96665.03
2023-04-24T15:26:08.206Z,96673.78
2023-04-24T15:28:36.140Z,96673.38
2023-04-24T15:31:03.872Z,96675.25
2023-04-24T15:33:31.643Z,96668.34
2023-04-24T15:35:59.390Z,96680.50
2023-04-24T15:38:27.578Z,96683.06
2023-04-24T15:40:56.650Z,96681.38
2023-04-24T15:43:24.441Z,96681.66
2023-04-24T15:45:52.523Z,96677.72
2023-04-24T15:48:20.964Z,96670.88
2023-04-24T15:50:48.673Z,96671.81
2023-04-24T15:53:22.019Z,96663.56
2023-04-24T15:55:49.995Z,96661.31
2023-04-24T15:58:19.848Z,96686.06
2023-04-24T16:00:47.588Z,96677.47
2023-04-24T16:03:15.435Z,96681.09
2023-04-24T16:05:43.340Z,96676.31
2023-04-24T16:08:11.671Z,96675.13
2023-04-24T16:10:39.425Z,96671.75
2023-04-24T16:13:07.281Z,96669.94
2023-04-24T16:15:37.401Z,96673.81
2023-04-24T16:18:05.364Z,96671.25
2023-04-24T16:20:33.222Z,96681.22
2023-04-24T16:23:00.991Z,96683.03
2023-04-24T16:25:28.925Z,96679.00
2023-04-24T16:27:57.178Z,96694.59
2023-04-24T16:30:25.229Z,96682.41
2023-04-24T16:32:54.466Z,96688.88
2023-04-24T16:35:22.236Z,96683.09
2023-04-24T16:37:49.983Z,96695.91
2023-04-24T16:40:17.763Z,96692.09
2023-04-24T16:42:45.538Z,96690.44
2023-04-24T16:45:13.348Z,96697.53
2023-04-24T16:47:41.149Z,96720.66
2023-04-24T16:50:11.596Z,96691.94
2023-04-24T16:52:39.523Z,96694.44
2023-04-24T16:55:08.980Z,96692.53
2023-04-24T16:57:37.622Z,96681.66
2023-04-24T17:00:06.445Z,96681.66
2023-04-24T17:02:34.299Z,96682.50
2023-04-24T17:05:02.381Z,96681.25
2023-04-24T17:07:32.108Z,96681.00
2023-04-24T17:09:59.902Z,96686.66
2023-04-24T17:12:27.769Z,96680.66
2023-04-24T17:14:55.825Z,96679.59
2023-04-24T17:17:25.533Z,96681.16
2023-04-24T17:19:53.390Z,96695.44
2023-04-24T17:22:21.383Z,96689.91
2023-04-24T17:24:50.571Z,96698.19
2023-04-24T17:27:18.405Z,96706.69
2023-04-24T17:29:46.172Z,96698.06
2023-04-24T17:32:13.929Z,96700.94
2023-04-24T17:34:41.726Z,96698.75
2023-04-24T17:37:09.662Z,96703.56
2023-04-24T17:39:37.365Z,96707.69
2023-04-24T17:42:06.983Z,96704.00
2023-04-24T17:44:34.759Z,96703.25
2023-04-24T17:47:03.961Z,96701.06
2023-04-24T17:49:31.704Z,96705.56
2023-04-24T17:51:59.720Z,96693.78
2023-04-24T17:54:27.550Z,96718.00
2023-04-24T17:56:55.406Z,96710.78
2023-04-24T17:59:24.892Z,96707.28
2023-04-24T18:01:53.152Z,96708.44
2023-04-24T18:04:21.182Z,96714.78
2023-04-24T18:06:49.064Z,96728.97
2023-04-24T18:09:18.958Z,96747.28
2023-04-24T18:11:46.730Z,96746.31
2023-04-24T18:14:15.100Z,96751.03
2023-04-24T18:16:44.178Z,96760.44
2023-04-24T18:19:11.893Z,96754.22
2023-04-24T18:21:39.734Z,96764.88
2023-04-24T18:24:07.779Z,96759.69
2023-04-24T18:26:35.555Z,96762.81
2023-04-24T18:29:03.361Z,96759.56
2023-04-24T18:31:32.603Z,96756.28
2023-04-24T18:34:01.869Z,96757.44
2023-04-24T18:36:29.625Z,96752.19
2023-04-24T18:38:57.438Z,96757.63
2023-04-24T18:41:25.140Z,96750.81
2023-04-24T18:43:52.968Z,96749.84
2023-04-24T18:46:20.773Z,96746.31
2023-04-24T18:48:48.730Z,96751.34
2023-04-24T18:51:17.998Z,96751.44
2023-04-24T18:53:45.774Z,96759.31
2023-04-24T18:56:13.588Z,96752.59
2023-04-24T18:58:44.364Z,96755.31
2023-04-24T19:01:12.176Z,96757.84
2023-04-24T19:03:40.012Z,96755.31
2023-04-24T19:06:07.758Z,96766.81
2023-04-24T19:08:38.561Z,96775.81
2023-04-24T19:11:06.404Z,96779.53
2023-04-24T19:13:34.523Z,96778.69
2023-04-24T19:16:02.300Z,96776.19
2023-04-24T19:18:30.551Z,96782.28
2023-04-24T19:20:59.018Z,96783.94
2023-04-24T19:23:27.140Z,96788.72
2023-04-24T19:25:56.240Z,96791.63
2023-04-24T19:28:23.990Z,96789.09
2023-04-24T19:30:51.712Z,96792.31
2023-04-24T19:33:19.553Z,96793.97
2023-04-24T19:35:47.417Z,96794.16
2023-04-24T19:38:15.159Z,96796.78
2023-04-24T19:40:42.917Z,96792.38
2023-04-24T19:43:12.567Z,96785.56
2023-04-24T19:45:40.773Z,96790.63
2023-04-24T19:48:09.200Z,96793.03
2023-04-24T19:50:37.669Z,96792.31
2023-04-24T19:53:06.649Z,96791.91
2023-04-24T19:55:34.803Z,96790.97
2023-04-24T19:58:02.528Z,96781.44
2023-04-24T20:00:32.013Z,96789.94
2023-04-24T20:02:59.840Z,96790.59
2023-04-24T20:05:27.795Z,96794.59
2023-04-24T20:07:55.664Z,96792.81
2023-04-24T20:10:23.493Z,96791.75
2023-04-24T20:12:51.567Z,96792.81
2023-04-24T20:15:19.557Z,96794.50
2023-04-24T20:17:48.844Z,96793.84
2023-04-24T20:20:16.953Z,96784.22
2023-04-24T20:22:44.737Z,96796.47
2023-04-24T20:25:13.385Z,96792.91
2023-04-24T20:27:41.977Z,96773.84
2023-04-24T20:30:13.242Z,96784.06
2023-04-24T20:32:41.466Z,96784.16
2023-04-24T20:35:11.986Z,96794.53
2023-04-24T20:37:40.081Z,96790.00
2023-04-24T20:40:09.900Z,96787.13
2023-04-24T20:42:38.355Z,96776.19
2023-04-24T20:45:08.209Z,96780.50
2023-04-24T20:47:36.862Z,96784.06
2023-04-24T20:50:06.309Z,96775.09
2023-04-24T20:52:35.671Z,96764.25
2023-04-24T20:55:03.737Z,96771.84
2023-04-24T20:57:32.157Z,96772.09
2023-04-24T20:59:59.992Z,96772.50
2023-04-24T21:02:27.886Z,96775.41
2023-04-24T21:04:55.751Z,96780.81
2023-04-24T21:07:24.611Z,96782.25
2023-04-24T21:09:53.777Z,96772.72
2023-04-24T21:12:21.512Z,96767.66
2023-04-24T21:14:51.066Z,96763.34
2023-04-24T21:17:19.273Z,96767.03
2023-04-24T21:19:47.064Z,96769.63
2023-04-24T21:22:14.818Z,96760.00
2023-04-24T21:24:42.661Z,96760.94
2023-04-24T21:27:11.820Z,96755.88
2023-04-24T21:29:39.706Z,96755.03
2023-04-24T21:32:07.546Z,96755.81
2023-04-24T21:34:35.408Z,96749.72
2023-04-24T21:37:03.143Z,96750.66
2023-04-24T21:39:30.902Z,96754.97
2023-04-24T21:41:59.012Z,96755.63
2023-04-24T21:44:28.217Z,96752.25
2023-04-24T21:46:55.974Z,96760.94
2023-04-24T21:49:23.746Z,96754.97
2023-04-24T21:51:51.524Z,96760.47
2023-04-24T21:54:20.528Z,96759.72
2023-04-24T21:56:48.714Z,96757.41
2023-04-24T21:59:16.673Z,96750.88
2023-04-24T22:01:45.973Z,96753.84
2023-04-24T22:04:14.253Z,96750.66
2023-04-24T22:06:42.363Z,96749.16
2023-04-24T22:09:10.994Z,96758.13
2023-04-24T22:11:39.111Z,96753.66
2023-04-24T22:14:07.536Z,96710.66
2023-04-24T22:16:35.497Z,96732.53
2023-04-24T22:19:05.028Z,96746.94
2023-04-24T22:21:33.415Z,96751.13
2023-04-24T22:24:01.337Z,96749.47
2023-04-24T22:26:29.205Z,96758.22
2023-04-24T22:28:57.249Z,96745.25
2023-04-24T22:31:25.249Z,96745.03
2023-04-24T22:33:53.289Z,96753.84
2023-04-24T22:36:22.841Z,96744.13
2023-04-24T22:38:50.727Z,96746.72
2023-04-24T22:41:18.559Z,96738.16
2023-04-24T22:43:46.916Z,96746.09
2023-04-24T22:46:14.862Z,96726.38
2023-04-24T22:48:42.636Z,96740.84
2023-04-24T22:51:10.975Z,96737.78
2023-04-24T22:53:40.251Z,96729.94
2023-04-24T22:56:08.558Z,96729.09
2023-04-24T22:58:36.779Z,96738.88
2023-04-24T23:01:05.455Z,96731.16
2023-04-24T23:03:33.801Z,96731.16
2023-04-24T23:06:01.805Z,96733.84
2023-04-24T23:08:30.695Z,96730.19
2023-04-24T23:11:00.095Z,96735.69
2023-04-24T23:13:28.317Z,96721.88
2023-04-24T23:15:56.348Z,96730.47
2023-04-24T23:18:24.319Z,96726.94
2023-04-24T23:20:53.073Z,96734.94
2023-04-24T23:23:21.201Z,96729.03
2023-04-24T23:25:49.285Z,96729.88
2023-04-24T23:28:18.561Z,96736.78
2023-04-24T23:30:46.428Z,96725.66
2023-04-24T23:33:15.057Z,96735.78
2023-04-24T23:35:43.051Z,96728.19
2023-04-24T23:38:11.088Z,96735.19
2023-04-24T23:40:39.396Z,96736.22
2023-04-24T23:43:08.529Z,96723.13
2023-04-24T23:45:38.496Z,96731.09
2023-04-24T23:48:06.575Z,96735.72
2023-04-24T23:50:34.682Z,96728.72
2023-04-24T23:53:02.646Z,96730.50
2023-04-24T23:55:30.630Z,96729.66
2023-04-24T23:57:58.724Z,96732.28
